createdAt,value
2017-02-12T07:13:23.791Z,3.99
2017-02-12T07:14:37.939Z,4.07
2017-02-12T07:15:51.885Z,3.78
2017-02-12T07:17:06.061Z,3.7
2017-02-12T07:18:20.080Z,3.55
2017-02-12T07:19:34.237Z,3.58
2017-02-12T07:20:48.458Z,3.52
2017-02-12T07:22:02.996Z,3.58
2017-02-12T07:23:17.008Z,3.58
2017-02-12T07:24:31.160Z,3.53
2017-02-12T07:25:45.081Z,3.56
2017-02-12T07:26:59.532Z,3.43
2017-02-12T07:28:14.859Z,3.45
2017-02-12T07:29:28.802Z,3.37
2017-02-12T07:30:43.358Z,3.41
2017-02-12T07:31:57.740Z,3.45
2017-02-12T07:33:12.149Z,3.41
2017-02-12T07:34:26.118Z,3.41
2017-02-12T07:35:40.239Z,3.43
2017-02-12T07:36:54.168Z,3.49
2017-02-12T07:38:08.296Z,3.41
2017-02-12T07:39:22.587Z,3.37
2017-02-12T07:40:36.832Z,3.56
2017-02-12T07:41:51.208Z,3.53
2017-02-12T07:43:05.734Z,3.5
2017-02-12T07:44:19.765Z,3.63
2017-02-12T07:45:34.280Z,3.58
2017-02-12T07:46:48.219Z,3.55
2017-02-12T07:48:02.944Z,3.74
2017-02-12T07:49:16.955Z,3.73
2017-02-12T07:50:31.282Z,3.74
2017-02-12T07:51:45.715Z,3.76
2017-02-12T07:53:00.009Z,3.67
2017-02-12T07:54:13.992Z,3.82
2017-02-12T07:55:28.100Z,3.84
2017-02-12T07:56:42.032Z,3.81
2017-02-12T07:57:56.486Z,3.84
2017-02-12T07:59:10.707Z,3.91
2017-02-12T08:00:24.864Z,3.92
2017-02-12T08:01:38.810Z,3.94
2017-02-12T08:02:52.893Z,3.91
2017-02-12T08:04:07.097Z,3.99
2017-02-12T08:05:21.546Z,3.99
2017-02-12T08:06:35.453Z,4.06
2017-02-12T08:07:49.580Z,4.03
2017-02-12T08:09:03.583Z,4.12
2017-02-12T08:10:18.037Z,4.12
2017-02-12T08:11:31.988Z,4.21
2017-02-12T08:12:46.175Z,4.21
2017-02-12T08:14:00.275Z,4.31
2017-02-12T08:15:14.373Z,4.28
2017-02-12T08:16:29.100Z,4.36
2017-02-12T08:17:43.254Z,4.39
2017-02-12T08:18:57.163Z,4.39
2017-02-12T08:20:11.377Z,4.42
2017-02-12T08:21:25.360Z,4.27
2017-02-12T08:22:39.748Z,4.38
2017-02-12T08:23:53.690Z,4.39
2017-02-12T08:25:07.807Z,4.45
2017-02-12T08:26:22.151Z,4.46
2017-02-12T08:27:36.246Z,4.52
2017-02-12T08:28:50.652Z,4.48
2017-02-12T08:30:07.444Z,4.53
2017-02-12T08:31:21.875Z,4.52
2017-02-12T08:32:36.049Z,4.4
2017-02-12T08:33:49.992Z,4.39
2017-02-12T08:35:04.419Z,4.42
2017-02-12T08:36:18.434Z,4.4
2017-02-12T08:37:32.512Z,4.49
2017-02-12T08:38:46.455Z,4.56
2017-02-12T08:40:00.644Z,4.5
2017-02-12T08:41:14.891Z,4.5
2017-02-12T08:42:29.027Z,4.53
2017-02-12T08:43:42.974Z,4.45
2017-02-12T08:44:57.089Z,4.4
2017-02-12T08:46:11.043Z,4.52
2017-02-12T08:47:25.508Z,4.49
2017-02-12T08:48:39.628Z,4.53
2017-02-12T08:49:53.874Z,4.57
2017-02-12T08:51:08.286Z,4.45
2017-02-12T08:52:22.432Z,4.31
2017-02-12T08:53:36.683Z,4.56
2017-02-12T08:54:50.809Z,4.63
2017-02-12T08:56:07.035Z,4.66
2017-02-12T08:57:21.590Z,4.75
2017-02-12T08:58:35.574Z,4.89
2017-02-12T08:59:50.440Z,4.94
2017-02-12T09:01:04.460Z,5.1
2017-02-12T09:02:18.770Z,5.1
2017-02-12T09:03:33.852Z,5.15
2017-02-12T09:04:52.496Z,5.13
2017-02-12T09:06:09.005Z,4.92
2017-02-12T09:07:23.238Z,5.08
2017-02-12T09:08:37.655Z,5.12
2017-02-12T09:09:52.007Z,4.94
2017-02-12T09:11:06.515Z,4.89
2017-02-12T09:12:21.672Z,4.84
2017-02-12T09:13:35.756Z,4.94
2017-02-12T09:14:50.028Z,4.7
2017-02-12T09:16:04.963Z,4.67
2017-02-12T09:17:19.890Z,4.7
2017-02-12T09:18:35.196Z,4.87
2017-02-12T09:19:49.519Z,4.86
2017-02-12T09:21:03.771Z,4.9
2017-02-12T09:22:18.070Z,4.95
2017-02-12T09:23:32.136Z,4.97
2017-02-12T09:24:49.411Z,4.95
2017-02-12T09:26:05.511Z,4.92
2017-02-12T09:27:23.646Z,5
2017-02-12T09:28:42.566Z,4.86
2017-02-12T09:30:00.868Z,4.82
2017-02-12T09:31:18.839Z,4.97
2017-02-12T09:32:36.728Z,5
2017-02-12T09:33:51.802Z,5.05
2017-02-12T09:35:06.145Z,5.08
2017-02-12T09:36:20.391Z,5.18
2017-02-12T09:37:49.286Z,5.2
2017-02-12T09:39:03.535Z,5.01
2017-02-12T09:40:18.151Z,4.92
2017-02-12T09:41:32.300Z,4.95
2017-02-12T09:42:46.310Z,4.9
2017-02-12T09:44:00.570Z,4.94
2017-02-12T09:45:15.120Z,5.1
2017-02-12T09:46:29.680Z,5.18
2017-02-12T09:47:46.294Z,5.26
2017-02-12T09:49:00.373Z,5.25
2017-02-12T09:50:14.467Z,5.26
2017-02-12T09:51:29.288Z,5.23
2017-02-12T09:52:43.739Z,5.2
2017-02-12T09:53:58.634Z,5.25
2017-02-12T09:55:14.231Z,5.16
2017-02-12T09:56:28.809Z,5.26
2017-02-12T09:57:43.213Z,5.36
2017-02-12T09:59:00.212Z,5.47
2017-02-12T10:00:14.613Z,5.49
2017-02-12T10:01:28.921Z,5.47
2017-02-12T10:02:43.150Z,5.41
2017-02-12T10:03:57.804Z,5.65
2017-02-12T10:05:12.706Z,5.59
2017-02-12T10:06:27.027Z,5.77
2017-02-12T10:07:42.135Z,5.61
2017-02-12T10:08:56.164Z,5.51
2017-02-12T10:10:11.187Z,5.51
2017-02-12T10:11:25.715Z,5.52
2017-02-12T10:12:39.852Z,5.44
2017-02-12T10:13:53.928Z,5.33
2017-02-12T10:15:08.336Z,5.43
2017-02-12T10:16:22.636Z,5.44
2017-02-12T10:17:37.153Z,5.62
2017-02-12T10:18:51.168Z,5.47
2017-02-12T10:20:05.328Z,5.51
2017-02-12T10:21:19.787Z,5.58
2017-02-12T10:22:34.099Z,5.65
2017-02-12T10:23:48.475Z,5.55
2017-02-12T10:25:02.718Z,5.65
2017-02-12T10:26:17.328Z,5.62
2017-02-12T10:27:31.947Z,5.61
2017-02-12T10:28:46.629Z,5.62
2017-02-12T10:30:02.347Z,5.79
2017-02-12T10:31:16.835Z,5.77
2017-02-12T10:32:32.605Z,5.58
2017-02-12T10:33:47.727Z,5.64
2017-02-12T10:35:01.855Z,5.55
2017-02-12T10:36:16.594Z,5.58
2017-02-12T10:37:30.826Z,5.65
2017-02-12T10:38:46.305Z,5.67
2017-02-12T10:40:02.267Z,5.61
2017-02-12T10:41:17.051Z,5.77
2017-02-12T10:43:09.803Z,5.76
2017-02-12T10:44:24.552Z,5.84
2017-02-12T10:45:38.729Z,5.83
2017-02-12T10:46:53.394Z,5.72
2017-02-12T10:48:08.859Z,5.73
2017-02-12T10:49:23.692Z,5.77
2017-02-12T10:50:38.104Z,5.72
2017-02-12T10:51:52.966Z,5.79
2017-02-12T10:53:07.946Z,5.83
2017-02-12T10:54:23.115Z,5.73
2017-02-12T10:55:39.867Z,5.74
2017-02-12T10:56:55.886Z,5.72
2017-02-12T10:58:13.202Z,5.65
2017-02-12T10:59:27.925Z,5.73
2017-02-12T11:00:42.000Z,5.69
2017-02-12T11:01:57.617Z,5.7
2017-02-12T11:03:12.382Z,5.67
2017-02-12T11:04:27.518Z,5.65
2017-02-12T11:05:45.305Z,5.65
2017-02-12T11:06:59.412Z,5.59
2017-02-12T11:08:14.452Z,5.77
2017-02-12T11:09:29.219Z,5.72
2017-02-12T11:10:44.417Z,5.62
2017-02-12T11:11:58.501Z,5.67
2017-02-12T11:13:12.842Z,5.62
2017-02-12T11:14:27.672Z,5.69
2017-02-12T11:15:42.675Z,5.65
2017-02-12T11:16:57.823Z,5.72
2017-02-12T11:18:11.838Z,5.69
2017-02-12T11:19:26.305Z,5.77
2017-02-12T11:20:41.169Z,5.81
2017-02-12T11:21:56.318Z,5.9
2017-02-12T11:23:11.616Z,5.87
2017-02-12T11:24:26.031Z,5.97
2017-02-12T11:25:40.694Z,5.98
2017-02-12T11:26:55.286Z,5.98
2017-02-12T11:28:09.775Z,6.15
2017-02-12T11:29:24.661Z,6.19
2017-02-12T11:30:38.687Z,6.17
2017-02-12T11:31:53.060Z,6.07
2017-02-12T11:33:07.794Z,5.94
2017-02-12T11:34:22.129Z,5.95
2017-02-12T11:35:36.337Z,6.05
2017-02-12T11:36:50.534Z,6.06
2017-02-12T11:38:05.092Z,6.15
2017-02-12T11:39:20.146Z,6.16
2017-02-12T11:40:34.501Z,6.25
2017-02-12T11:41:49.520Z,6.12
2017-02-12T11:43:03.584Z,6.05
2017-02-12T11:44:18.209Z,6.02
2017-02-12T11:45:33.591Z,5.97
2017-02-12T11:46:48.061Z,6.09
2017-02-12T11:48:02.903Z,6.07
2017-02-12T11:49:17.365Z,6.16
2017-02-12T11:50:32.158Z,6.31
2017-02-12T11:51:47.764Z,6.31
2017-02-12T11:53:02.810Z,6.17
2017-02-12T11:54:17.145Z,6.2
2017-02-12T11:55:31.417Z,6.22
2017-02-12T11:56:46.573Z,6.16
2017-02-12T11:58:01.128Z,6.29
2017-02-12T11:59:16.083Z,6.29
2017-02-12T12:00:30.323Z,6.32
2017-02-12T12:01:45.275Z,6.31
2017-02-12T12:03:00.549Z,6.28
2017-02-12T12:04:15.483Z,6.22
2017-02-12T12:05:29.621Z,6.28
2017-02-12T12:06:53.383Z,6.26
2017-02-12T12:08:08.899Z,6.19
2017-02-12T12:09:23.148Z,6.28
2017-02-12T12:10:37.930Z,6.2
2017-02-12T12:11:53.101Z,6.34
2017-02-12T12:13:07.485Z,6.44
2017-02-12T12:14:22.494Z,6.52
2017-02-12T12:15:37.833Z,6.56
2017-02-12T12:16:52.575Z,6.67
2017-02-12T12:18:06.613Z,6.57
2017-02-12T12:19:20.943Z,6.54
2017-02-12T12:20:35.287Z,6.53
2017-02-12T12:21:50.618Z,6.52
2017-02-12T12:23:07.462Z,6.64
2017-02-12T12:24:23.481Z,6.64
2017-02-12T12:25:37.498Z,6.77
2017-02-12T12:26:52.346Z,6.68
2017-02-12T12:28:07.331Z,6.72
2017-02-12T12:29:23.015Z,6.72
2017-02-12T12:30:49.075Z,6.72
2017-02-12T12:32:04.092Z,6.62
2017-02-12T12:33:19.202Z,6.8
2017-02-12T12:34:34.380Z,6.72
2017-02-12T12:35:50.217Z,6.75
2017-02-12T12:37:06.631Z,6.74
2017-02-12T12:38:22.179Z,6.72
2017-02-12T12:39:37.016Z,6.8
2017-02-12T12:40:51.832Z,6.9
2017-02-12T12:42:06.520Z,6.95
2017-02-12T12:43:21.482Z,6.95
2017-02-12T12:44:35.963Z,7.11
2017-02-12T12:45:51.487Z,7.26
2017-02-12T12:47:25.586Z,7.28
2017-02-12T12:48:40.580Z,7.26
2017-02-12T12:49:55.896Z,7.23
2017-02-12T12:51:09.951Z,7.18
2017-02-12T12:52:27.049Z,7.11
2017-02-12T12:53:42.584Z,7.19
2017-02-12T12:54:57.911Z,7.21
2017-02-12T12:56:12.602Z,7.39
2017-02-12T12:57:28.809Z,7.28
2017-02-12T12:58:44.614Z,7.32
2017-02-12T12:59:59.215Z,7.33
2017-02-12T13:01:14.842Z,7.31
2017-02-12T13:02:28.911Z,7.31
2017-02-12T13:03:43.291Z,7.46
2017-02-12T13:04:58.683Z,7.33
2017-02-12T13:06:14.998Z,7.41
2017-02-12T13:07:31.775Z,7.41
2017-02-12T13:08:49.393Z,7.33
2017-02-12T13:10:07.268Z,7.25
2017-02-12T13:11:27.052Z,7.13
2017-02-12T13:12:42.326Z,7.18
2017-02-12T13:13:56.870Z,7.28
2017-02-12T13:15:12.653Z,7.29
2017-02-12T13:16:30.001Z,7.39
2017-02-12T13:17:49.092Z,7.48
2017-02-12T13:19:05.680Z,7.64
2017-02-12T13:20:20.648Z,7.66
2017-02-12T13:21:49.446Z,7.59
2017-02-12T13:23:05.099Z,7.55
2017-02-12T13:24:20.873Z,7.59
2017-02-12T13:25:36.662Z,7.56
2017-02-12T13:26:51.260Z,7.44
2017-02-12T13:28:06.282Z,7.47
2017-02-12T13:29:22.358Z,7.29
2017-02-12T13:30:38.432Z,7.4
2017-02-12T13:31:53.803Z,7.36
2017-02-12T13:33:08.070Z,7.43
2017-02-12T13:34:23.467Z,7.44
2017-02-12T13:35:40.930Z,7.37
2017-02-12T13:36:59.624Z,7.44
2017-02-12T13:38:20.850Z,7.37
2017-02-12T13:39:38.728Z,7.46
2017-02-12T13:40:53.110Z,7.39
2017-02-12T13:42:09.967Z,7.41
2017-02-12T13:43:24.746Z,7.4
2017-02-12T13:44:40.340Z,7.43
2017-02-12T13:45:56.012Z,7.51
2017-02-12T13:47:10.394Z,7.51
2017-02-12T13:48:26.981Z,7.5
2017-02-12T13:49:41.305Z,7.48
2017-02-12T13:50:56.236Z,7.5
2017-02-12T13:52:12.701Z,7.59
2017-02-12T13:53:28.071Z,7.59
2017-02-12T13:54:43.448Z,7.62
2017-02-12T13:55:58.957Z,7.61
2017-02-12T13:57:12.996Z,7.61
2017-02-12T13:58:27.787Z,7.58
2017-02-12T13:59:42.081Z,7.59
2017-02-12T14:00:57.117Z,7.47
2017-02-12T14:02:12.418Z,7.47
2017-02-12T14:03:43.639Z,7.64
2017-02-12T14:05:03.563Z,7.77
2017-02-12T14:07:07.465Z,7.83
2017-02-12T14:08:22.515Z,7.84
2017-02-12T14:09:41.638Z,7.8
2017-02-12T14:10:59.214Z,7.66
2017-02-12T14:12:21.337Z,7.78
2017-02-12T14:13:40.565Z,7.8
2017-02-12T14:15:05.032Z,7.67
2017-02-12T14:16:25.566Z,7.55
2017-02-12T14:17:39.849Z,7.75
2017-02-12T14:18:58.186Z,7.61
2017-02-12T14:20:20.959Z,7.56
2017-02-12T14:21:44.751Z,7.62
2017-02-12T14:23:07.118Z,7.44
2017-02-12T14:24:24.974Z,7.33
2017-02-12T14:25:44.057Z,7.39
2017-02-12T14:26:59.691Z,7.13
2017-02-12T14:28:14.407Z,7.15
2017-02-12T14:29:33.173Z,7.05
2017-02-12T14:30:52.297Z,7.03
2017-02-12T14:32:10.568Z,7.08
2017-02-12T14:33:24.866Z,7.04
2017-02-12T14:34:39.995Z,7.01
2017-02-12T14:35:55.612Z,7.07
2017-02-12T14:37:15.383Z,7.11
2017-02-12T14:38:29.878Z,6.97
2017-02-12T14:39:45.085Z,7.01
2017-02-12T14:41:00.189Z,6.93
2017-02-12T14:42:15.775Z,6.82
2017-02-12T14:43:31.188Z,6.75
2017-02-12T14:44:47.448Z,6.71
2017-02-12T14:46:04.915Z,6.67
2017-02-12T14:47:20.563Z,6.59
2017-02-12T14:48:36.415Z,6.46
2017-02-12T14:49:51.684Z,6.44
2017-02-12T14:51:06.225Z,6.36
2017-02-12T14:52:21.819Z,6.32
2017-02-12T14:53:37.865Z,6.35
2017-02-12T14:54:52.787Z,6.32
2017-02-12T14:56:16.779Z,6.35
2017-02-12T14:57:40.643Z,6.31
2017-02-12T14:58:55.423Z,6.17
2017-02-12T15:00:09.683Z,6.09
2017-02-12T15:01:26.465Z,6.05
2017-02-12T15:02:43.924Z,6.05
2017-02-12T15:03:59.368Z,5.99
2017-02-12T15:05:14.477Z,6.05
2017-02-12T15:06:29.257Z,6.06
2017-02-12T15:07:44.731Z,6.02
2017-02-12T15:09:11.238Z,5.94
2017-02-12T15:10:25.688Z,5.87
2017-02-12T15:11:43.432Z,5.91
2017-02-12T15:13:33.782Z,5.77
2017-02-12T15:14:48.839Z,5.72
2017-02-12T15:16:03.250Z,5.79
2017-02-12T15:17:18.860Z,5.77
2017-02-12T15:18:33.996Z,5.9
2017-02-12T15:19:48.774Z,5.83
2017-02-12T15:21:04.263Z,5.76
2017-02-12T15:22:19.429Z,5.8
2017-02-12T15:23:35.248Z,5.67
2017-02-12T15:24:56.969Z,5.64
2017-02-12T15:26:14.347Z,5.56
2017-02-12T15:27:34.963Z,5.58
2017-02-12T15:28:56.110Z,5.54
2017-02-12T15:30:13.843Z,5.56
2017-02-12T15:31:28.269Z,5.52
2017-02-12T15:32:43.931Z,5.46
2017-02-12T15:33:58.573Z,5.44
2017-02-12T15:35:14.469Z,5.44
2017-02-12T15:36:41.608Z,5.38
2017-02-12T15:37:56.646Z,5.37
2017-02-12T15:39:11.354Z,5.37
2017-02-12T15:40:25.990Z,5.31
2017-02-12T15:41:39.970Z,5.15
2017-02-12T15:42:55.668Z,5.12
2017-02-12T15:44:10.618Z,4.97
2017-02-12T15:45:25.533Z,5.07
2017-02-12T15:46:39.703Z,5.02
2017-02-12T15:47:54.671Z,5.02
2017-02-12T15:49:26.952Z,5.07
2017-02-12T15:50:41.893Z,5.02
2017-02-12T15:51:55.876Z,5.12
2017-02-12T15:53:10.956Z,5.05
2017-02-12T15:54:24.936Z,5.01
2017-02-12T15:55:39.570Z,4.94
2017-02-12T15:57:06.358Z,4.97
2017-02-12T15:58:21.300Z,4.97
2017-02-12T15:59:36.173Z,4.84
2017-02-12T16:00:50.188Z,4.97
2017-02-12T16:02:05.087Z,4.86
2017-02-12T16:03:19.687Z,4.66
2017-02-12T16:04:34.394Z,4.56
2017-02-12T16:05:49.330Z,4.5
2017-02-12T16:07:03.971Z,4.56
2017-02-12T16:08:19.846Z,4.52
2017-02-12T16:09:33.974Z,4.63
2017-02-12T16:10:48.574Z,4.63
2017-02-12T16:12:03.542Z,4.68
2017-02-12T16:13:18.705Z,4.66
2017-02-12T16:14:33.773Z,4.52
2017-02-12T16:15:50.718Z,4.56
2017-02-12T16:17:05.358Z,4.5
2017-02-12T16:18:19.820Z,4.49
2017-02-12T16:19:34.518Z,4.5
2017-02-12T16:20:49.249Z,4.45
2017-02-12T16:22:06.298Z,4.48
2017-02-12T16:23:21.276Z,4.53
2017-02-12T16:24:56.095Z,4.63
2017-02-12T16:26:11.153Z,4.66
2017-02-12T16:27:26.562Z,4.68
2017-02-12T16:28:41.364Z,4.64
2017-02-12T16:29:56.141Z,4.61
2017-02-12T16:31:13.561Z,4.58
2017-02-12T16:32:27.861Z,4.57
2017-02-12T16:33:43.583Z,4.5
2017-02-12T16:34:58.546Z,4.56
2017-02-12T16:36:12.714Z,4.48
2017-02-12T16:37:26.732Z,4.5
2017-02-12T16:38:41.786Z,4.46
2017-02-12T16:39:56.277Z,4.5
2017-02-12T16:41:10.509Z,4.49
2017-02-12T16:42:24.666Z,4.38
2017-02-12T16:43:39.914Z,4.43
2017-02-12T16:44:56.062Z,4.53
2017-02-12T16:46:10.780Z,4.42
2017-02-12T16:47:25.823Z,4.3
2017-02-12T16:48:40.410Z,4.12
2017-02-12T16:49:54.955Z,4.18
2017-02-12T16:51:09.477Z,4.2
2017-02-12T16:52:24.206Z,4.16
2017-02-12T16:53:38.914Z,4.13
2017-02-12T16:54:54.419Z,4.22
2017-02-12T16:56:08.880Z,4.3
2017-02-12T16:57:24.436Z,4.28
2017-02-12T16:58:39.148Z,4.27
2017-02-12T16:59:53.444Z,4.27
2017-02-12T17:01:07.501Z,4.25
2017-02-12T17:02:22.084Z,4.22
2017-02-12T17:03:36.738Z,4.06
2017-02-12T17:05:02.444Z,4.13
2017-02-12T17:06:17.620Z,4.06
2017-02-12T17:07:33.229Z,4.09
2017-02-12T17:09:01.958Z,3.99
2017-02-12T17:10:16.726Z,4.09
2017-02-12T17:11:31.748Z,4
2017-02-12T17:12:46.880Z,4.04
2017-02-12T17:14:04.054Z,4
2017-02-12T17:15:21.467Z,4.04
2017-02-12T17:16:37.750Z,3.99
2017-02-12T17:17:55.966Z,3.94
2017-02-12T17:19:11.958Z,3.95
2017-02-12T17:20:26.569Z,3.85
2017-02-12T17:21:42.692Z,3.86
2017-02-12T17:22:58.687Z,3.89
2017-02-12T17:24:13.182Z,3.95
2017-02-12T17:25:28.848Z,3.91
2017-02-12T17:26:43.750Z,3.99
2017-02-12T17:27:58.810Z,3.88
2017-02-12T17:29:14.039Z,3.76
2017-02-12T17:30:38.245Z,3.81
2017-02-12T17:31:52.866Z,3.77
2017-02-12T17:33:08.270Z,3.86
2017-02-12T17:34:26.432Z,3.73
2017-02-12T17:35:44.637Z,3.71
2017-02-12T17:37:00.285Z,3.84
2017-02-12T17:38:14.930Z,3.76
2017-02-12T17:39:30.554Z,3.73
2017-02-12T17:40:47.597Z,3.76
2017-02-12T17:42:03.567Z,3.76
2017-02-12T17:43:18.510Z,3.7
2017-02-12T17:44:33.932Z,3.55
2017-02-12T17:45:48.988Z,3.68
2017-02-12T17:47:03.138Z,3.64
2017-02-12T17:48:18.337Z,3.55
2017-02-12T17:49:32.846Z,3.56
2017-02-12T17:50:50.635Z,3.41
2017-02-12T17:52:07.488Z,3.56
2017-02-12T17:53:23.094Z,3.58
2017-02-12T17:54:37.749Z,3.5
2017-02-12T17:55:53.375Z,3.49
2017-02-12T17:57:13.890Z,3.55
2017-02-12T17:58:29.533Z,3.55
2017-02-12T17:59:45.090Z,3.61
2017-02-12T18:01:01.090Z,3.58
2017-02-12T18:02:15.305Z,3.64
2017-02-12T18:03:31.824Z,3.64
2017-02-12T18:04:47.567Z,3.56
2017-02-12T18:06:05.006Z,3.53
2017-02-12T18:07:21.093Z,3.59
2017-02-12T18:08:37.508Z,3.53
2017-02-12T18:09:54.474Z,3.45
2017-02-12T18:11:09.874Z,3.4
2017-02-12T18:12:25.965Z,3.53
2017-02-12T18:13:41.582Z,3.58
2017-02-12T18:14:56.517Z,3.48
2017-02-12T18:16:23.986Z,3.53
2017-02-12T18:17:39.566Z,3.53
2017-02-12T18:18:53.734Z,3.58
2017-02-12T18:20:08.725Z,3.53
2017-02-12T18:21:23.631Z,3.53
2017-02-12T18:22:37.720Z,3.61
2017-02-12T18:23:52.530Z,3.53
2017-02-12T18:25:07.765Z,3.52
2017-02-12T18:26:21.777Z,3.41
2017-02-12T18:27:36.141Z,3.41
2017-02-12T18:28:50.623Z,3.45
2017-02-12T18:30:06.375Z,3.37
2017-02-12T18:31:21.086Z,3.43
2017-02-12T18:32:35.838Z,3.4
2017-02-12T18:33:50.918Z,3.43
2017-02-12T18:35:06.109Z,3.48
2017-02-12T18:36:20.846Z,3.41
2017-02-12T18:37:36.038Z,3.49
2017-02-12T18:38:50.303Z,3.49
2017-02-12T18:40:04.639Z,3.61
2017-02-12T18:41:19.058Z,3.55
2017-02-12T18:42:33.746Z,3.49
2017-02-12T18:43:49.457Z,3.55
2017-02-12T18:45:15.446Z,3.61
2017-02-12T18:46:30.294Z,3.58
2017-02-12T18:47:45.273Z,3.64
2017-02-12T18:49:01.083Z,3.73
2017-02-12T18:50:15.804Z,3.68
2017-02-12T18:51:31.228Z,3.77
2017-02-12T18:52:45.320Z,3.74
2017-02-12T18:54:00.521Z,3.71
2017-02-12T18:55:15.586Z,3.74
2017-02-12T18:56:31.395Z,3.76
2017-02-12T18:57:47.763Z,3.78
2017-02-12T18:59:04.927Z,3.81
2017-02-12T19:00:20.999Z,3.77
2017-02-12T19:01:35.800Z,3.76
2017-02-12T19:02:50.445Z,3.85
2017-02-12T19:04:05.139Z,3.96
2017-02-12T19:05:20.025Z,3.95
2017-02-12T19:06:35.623Z,3.85
2017-02-12T19:07:49.787Z,3.94
2017-02-12T19:09:05.704Z,3.96
2017-02-12T19:10:22.395Z,3.94
2017-02-12T19:11:37.638Z,4.02
2017-02-12T19:12:53.110Z,4.09
2017-02-12T19:14:08.516Z,4.13
2017-02-12T19:15:23.106Z,4.09
2017-02-12T19:16:37.748Z,3.95
2017-02-12T19:17:51.840Z,3.94
2017-02-12T19:19:06.815Z,3.99
2017-02-12T19:20:21.766Z,4.1
2017-02-12T19:21:38.336Z,4.04
2017-02-12T19:22:57.800Z,4.02
2017-02-12T19:24:12.699Z,4.02
2017-02-12T19:25:28.568Z,3.95
2017-02-12T19:26:43.314Z,3.96
2017-02-12T19:27:59.316Z,4.06
2017-02-12T19:29:17.383Z,4.13
2017-02-12T19:30:33.540Z,4.12
2017-02-12T19:31:50.873Z,4.03
2017-02-12T19:33:06.258Z,4.02
2017-02-12T19:34:21.325Z,3.99
2017-02-12T19:35:36.434Z,3.91
2017-02-12T19:36:51.726Z,3.76
2017-02-12T19:38:06.936Z,3.81
2017-02-12T19:39:21.987Z,3.95
2017-02-12T19:40:37.055Z,3.86
2017-02-12T19:41:52.138Z,3.85
2017-02-12T19:43:06.843Z,3.85
2017-02-12T19:44:21.273Z,3.91
2017-02-12T19:45:36.014Z,3.92
2017-02-12T19:46:50.972Z,3.84
2017-02-12T19:48:05.805Z,3.88
2017-02-12T19:49:20.282Z,3.92
2017-02-12T19:50:35.552Z,3.92
2017-02-12T19:51:50.717Z,3.96
2017-02-12T19:53:04.996Z,3.99
2017-02-12T19:54:19.354Z,3.99
2017-02-12T19:55:34.205Z,4.02
2017-02-12T19:56:49.583Z,4
2017-02-12T19:58:06.338Z,4.02
2017-02-12T19:59:20.861Z,3.95
2017-02-12T20:00:36.071Z,4
2017-02-12T20:01:50.343Z,4
2017-02-12T20:03:05.487Z,4.03
2017-02-12T20:04:21.004Z,3.96
2017-02-12T20:05:35.676Z,3.81
2017-02-12T20:06:51.267Z,3.81
2017-02-12T20:08:08.319Z,3.84
2017-02-12T20:09:25.222Z,3.84
2017-02-12T20:10:42.665Z,3.84
2017-02-12T20:11:57.424Z,3.81
2017-02-12T20:13:12.480Z,3.85
2017-02-12T20:14:28.903Z,3.92
2017-02-12T20:15:44.187Z,3.78
2017-02-12T20:17:02.946Z,3.78
2017-02-12T20:18:18.163Z,3.82
2017-02-12T20:19:32.406Z,3.71
2017-02-12T20:20:48.273Z,3.73
2017-02-12T20:22:02.312Z,3.68
2017-02-12T20:23:16.654Z,3.68
2017-02-12T20:24:31.667Z,3.74
2017-02-12T20:25:46.727Z,3.73
2017-02-12T20:27:00.844Z,3.67
2017-02-12T20:28:15.510Z,3.7
2017-02-12T20:29:30.099Z,3.64
2017-02-12T20:30:45.801Z,3.68
2017-02-12T20:32:02.269Z,3.84
2017-02-12T20:33:17.019Z,3.81
2017-02-12T20:34:31.536Z,3.78
2017-02-12T20:35:47.562Z,3.76
2017-02-12T20:37:02.731Z,3.81
2017-02-12T20:38:17.630Z,3.76
2017-02-12T20:39:32.094Z,3.77
2017-02-12T20:40:47.188Z,3.81
2017-02-12T20:42:03.797Z,3.85
2017-02-12T20:43:19.629Z,3.86
2017-02-12T20:44:33.607Z,3.86
2017-02-12T20:46:03.061Z,3.76
2017-02-12T20:47:17.041Z,3.95
2017-02-12T20:48:31.382Z,3.95
2017-02-12T20:49:44.883Z,3.89
2017-02-12T20:50:59.122Z,3.76
2017-02-12T20:52:13.231Z,3.85
2017-02-12T20:53:27.215Z,3.94
2017-02-12T20:54:41.905Z,3.94
2017-02-12T20:55:56.411Z,3.85
2017-02-12T20:57:10.449Z,3.91
2017-02-12T20:58:24.781Z,3.95
2017-02-12T20:59:39.381Z,3.94
2017-02-12T21:01:08.403Z,3.95
2017-02-12T21:02:22.880Z,3.89
2017-02-12T21:03:36.522Z,3.86
2017-02-12T21:04:50.696Z,3.95
2017-02-12T21:06:04.288Z,3.95
2017-02-12T21:08:49.184Z,4.02
2017-02-12T21:10:03.546Z,3.95
2017-02-12T21:11:17.881Z,3.89
2017-02-12T21:12:32.032Z,3.94
2017-02-12T21:13:46.411Z,3.89
2017-02-12T21:15:01.373Z,3.94
2017-02-12T21:16:15.442Z,3.94
2017-02-12T21:17:29.359Z,3.96
2017-02-12T21:19:04.187Z,3.99
2017-02-12T21:20:18.049Z,3.86
2017-02-12T21:21:31.730Z,3.88
2017-02-12T21:22:45.674Z,3.96
2017-02-12T21:24:14.698Z,3.85
2017-02-12T21:25:28.818Z,3.92
2017-02-12T21:26:42.913Z,3.92
2017-02-12T21:27:57.132Z,3.85
2017-02-12T21:29:10.977Z,3.92
2017-02-12T21:30:24.976Z,3.81
2017-02-12T21:31:38.987Z,3.76
2017-02-12T21:32:52.786Z,3.85
2017-02-12T21:34:06.889Z,3.84
2017-02-12T21:35:23.916Z,3.96
2017-02-12T21:36:37.564Z,3.89
2017-02-12T21:37:51.849Z,3.92
2017-02-12T21:39:05.409Z,3.94
2017-02-12T21:40:19.699Z,3.89
2017-02-12T21:41:33.943Z,3.89
2017-02-12T21:43:03.455Z,3.82
2017-02-12T21:44:17.420Z,3.88
2017-02-12T21:45:31.634Z,3.81
2017-02-12T21:46:45.517Z,3.76
2017-02-12T21:47:59.245Z,3.67
2017-02-12T21:49:13.185Z,3.76
2017-02-12T21:50:27.051Z,3.82
2017-02-12T21:51:40.804Z,3.76
2017-02-12T21:52:54.576Z,3.86
2017-02-12T21:54:08.463Z,3.74
2017-02-12T21:55:22.327Z,3.81
2017-02-12T21:56:36.441Z,3.78
2017-02-12T21:57:50.670Z,3.78
2017-02-12T21:59:04.933Z,3.84
2017-02-12T22:00:19.397Z,3.85
2017-02-12T22:01:33.671Z,3.74
2017-02-12T22:02:47.431Z,3.68
2017-02-12T22:04:16.257Z,3.77
2017-02-12T22:05:30.312Z,3.82
2017-02-12T22:06:44.351Z,3.78
2017-02-12T22:07:58.115Z,3.88
2017-02-12T22:09:11.843Z,3.81
2017-02-12T22:10:25.894Z,3.77
2017-02-12T22:11:39.700Z,3.67
2017-02-12T22:12:54.022Z,3.77
2017-02-12T22:14:23.440Z,3.74
2017-02-12T22:15:37.535Z,3.76
2017-02-12T22:16:51.704Z,3.74
2017-02-12T22:18:05.834Z,3.76
2017-02-12T22:19:20.062Z,3.71
2017-02-12T22:20:34.434Z,3.78
2017-02-12T22:21:48.337Z,3.76
2017-02-12T22:23:02.363Z,3.71
2017-02-12T22:24:16.152Z,3.78
2017-02-12T22:25:30.110Z,3.77
2017-02-12T22:26:44.554Z,3.81
2017-02-12T22:27:58.360Z,3.66
2017-02-12T22:29:11.991Z,3.66
2017-02-12T22:30:26.329Z,3.67
2017-02-12T22:31:40.935Z,3.71
2017-02-12T22:33:24.590Z,3.68
2017-02-12T22:34:38.791Z,3.71
2017-02-12T22:35:52.615Z,3.7
2017-02-12T22:37:06.935Z,3.76
2017-02-12T22:38:20.977Z,3.71
2017-02-12T22:39:35.451Z,3.81
2017-02-12T22:40:49.913Z,3.71
2017-02-12T22:42:03.887Z,3.73
2017-02-12T22:43:17.834Z,3.73
2017-02-12T22:44:31.913Z,3.76
2017-02-12T22:45:45.711Z,3.71
2017-02-12T22:47:00.218Z,3.73
2017-02-12T22:48:13.834Z,3.71
2017-02-12T22:49:27.652Z,3.73
2017-02-12T22:50:41.289Z,3.74
2017-02-12T22:51:55.164Z,3.7
2017-02-12T22:53:11.243Z,3.71
2017-02-12T22:54:24.952Z,3.59
2017-02-12T22:55:38.874Z,3.66
2017-02-12T22:56:52.966Z,3.61
2017-02-12T22:58:06.938Z,3.63
2017-02-12T22:59:20.945Z,3.71
2017-02-12T23:00:34.993Z,3.61
2017-02-12T23:01:49.051Z,3.66
2017-02-12T23:03:02.825Z,3.64
2017-02-12T23:04:16.871Z,3.7
2017-02-12T23:05:31.126Z,3.77
2017-02-12T23:06:44.764Z,3.63
2017-02-12T23:07:58.851Z,3.64
2017-02-12T23:09:12.593Z,3.66
2017-02-12T23:10:27.206Z,3.63
2017-02-12T23:11:41.324Z,3.66
2017-02-12T23:12:55.785Z,3.76
2017-02-12T23:14:10.118Z,3.67
2017-02-12T23:15:24.228Z,3.68
2017-02-12T23:16:37.920Z,3.68
2017-02-12T23:17:52.072Z,3.66
2017-02-12T23:19:08.620Z,3.64
2017-02-12T23:20:25.660Z,3.61
2017-02-12T23:21:41.968Z,3.7
2017-02-12T23:22:56.692Z,3.59
2017-02-12T23:24:14.172Z,3.53
2017-02-12T23:25:27.966Z,3.66
2017-02-12T23:26:43.409Z,3.58
2017-02-12T23:27:59.078Z,3.55
2017-02-12T23:29:13.487Z,3.68
2017-02-12T23:30:33.762Z,3.66
2017-02-12T23:31:48.147Z,3.71
2017-02-12T23:33:02.563Z,3.71
2017-02-12T23:34:16.918Z,3.68
2017-02-12T23:35:30.745Z,3.73
2017-02-12T23:36:44.851Z,3.74
2017-02-12T23:37:58.403Z,3.74
2017-02-12T23:39:40.168Z,3.86
2017-02-12T23:40:54.715Z,3.77
2017-02-12T23:42:08.711Z,3.71
2017-02-12T23:43:24.053Z,3.67
2017-02-12T23:44:53.559Z,3.66
2017-02-12T23:46:08.099Z,3.71
2017-02-12T23:48:57.202Z,3.61
2017-02-12T23:50:25.772Z,3.63
2017-02-12T23:51:39.701Z,3.61
2017-02-12T23:52:53.911Z,3.61
2017-02-12T23:54:07.793Z,3.56
2017-02-12T23:55:21.406Z,3.61
2017-02-12T23:56:35.386Z,3.61
2017-02-12T23:57:49.915Z,3.64
2017-02-12T23:59:04.168Z,3.58
